Time;durP1;ratioP1;P1;durP2;ratioP2;P2;SDS_P1;SDS_P2;PMS_P1;PMS_P2;Temp;Humidity;BMP_temperature;BMP_pressure;BME280_temperature;BME280_humidity;BME280_pressure;Samples;Min_cycle;Max_cycle;Signal;HPM_P1;HPM_P2
2021/04/18 00:00:57;74233.00;0.25;129.07;0.00;0.00;0.62;;;;;12.70;1.00;;;;;;2253514;61;1264;-90
2021/04/18 00:03:24;40685.00;0.14;71.07;0.00;0.00;0.62;;;;;12.80;1.00;;;;;;2260691;61;1062;-89
2021/04/18 00:05:51;49940.00;0.17;87.08;0.00;0.00;0.62;;;;;12.80;1.00;;;;;;2260692;61;1038;-90
2021/04/18 00:08:18;205114.00;0.68;354.73;26858.00;0.09;47.14;;;;;12.70;1.00;;;;;;2260645;61;1013;-91
2021/04/18 00:10:45;26157.00;0.09;45.93;0.00;0.00;0.62;;;;;12.60;1.00;;;;;;2252983;61;1257;-89
2021/04/18 00:13:14;2234.00;0.01;4.49;0.00;0.00;0.62;;;;;12.40;1.00;;;;;;2252456;61;1069;-87
2021/04/18 00:15:42;136544.00;0.46;236.61;0.00;0.00;0.62;;;;;11.70;1.00;;;;;;2244516;61;1046;-87
2021/04/18 00:18:08;94786.00;0.32;164.57;0.00;0.00;0.62;;;;;11.00;1.00;;;;;;2238136;61;1999;-87
2021/04/18 00:20:35;110334.00;0.37;191.41;0.00;0.00;0.62;;;;;10.70;1.00;;;;;;2244695;61;1357;-88
2021/04/18 00:23:02;34662.00;0.12;60.65;0.00;0.00;0.62;;;;;10.90;1.00;;;;;;2244648;61;952;-88
2021/04/18 00:25:30;5975.00;0.02;10.98;0.00;0.00;0.62;;;;;11.20;1.00;;;;;;2244544;61;1063;-89
2021/04/18 00:27:57;78124.00;0.26;135.80;0.00;0.00;0.62;;;;;11.20;1.00;;;;;;2245839;61;1022;-89
2021/04/18 00:30:24;100392.00;0.33;174.25;18609.00;0.06;32.86;;;;;11.30;1.00;;;;;;2253588;61;1410;-88
2021/04/18 00:32:51;0.00;0.00;0.62;0.00;0.00;0.62;;;;;11.70;1.00;;;;;;2249050;61;1070;-88
2021/04/18 00:35:19;26804.00;0.09;47.05;0.00;0.00;0.62;;;;;11.50;1.00;;;;;;2252649;61;1042;-89
2021/04/18 00:37:46;39084.00;0.13;68.30;0.00;0.00;0.62;;;;;11.50;1.00;;;;;;2249202;61;1998;-88
2021/04/18 00:40:16;75084.00;0.25;130.54;0.00;0.00;0.62;;;;;11.50;1.00;;;;;;2248002;61;1432;-89
2021/04/18 00:42:43;14355.00;0.05;25.49;0.00;0.00;0.62;;;;;11.20;1.00;;;;;;2245970;61;1024;-90
2021/04/18 00:45:11;8564.00;0.03;15.46;0.00;0.00;0.62;;;;;11.30;1.00;;;;;;2252575;61;1030;-90
2021/04/18 00:47:41;197115.00;0.66;340.96;0.00;0.00;0.62;;;;;11.60;1.00;;;;;;2246002;61;994;-89
2021/04/18 00:50:10;33959.00;0.11;59.44;0.00;0.00;0.62;;;;;12.00;1.00;;;;;;2249197;61;1419;-88
2021/04/18 00:52:36;0.00;0.00;0.62;0.00;0.00;0.62;;;;;12.20;1.00;;;;;;2252515;61;987;-88
2021/04/18 00:55:06;105700.00;0.35;183.41;0.00;0.00;0.62;;;;;12.40;1.00;;;;;;2252488;61;1056;-88
2021/04/18 00:57:33;4550.00;0.02;8.51;0.00;0.00;0.62;;;;;12.50;1.00;;;;;;2249197;61;1920;-89
2021/04/18 01:00:01;182815.00;0.61;316.34;0.00;0.00;0.62;;;;;12.40;1.00;;;;;;2252443;61;1439;-90
2021/04/18 01:02:28;335011.00;1.12;578.10;58511.00;0.20;101.90;;;;;12.10;1.00;;;;;;2252393;61;994;-87
2021/04/18 01:04:54;109360.00;0.36;189.73;0.00;0.00;0.62;;;;;11.40;1.00;;;;;;2252309;61;1180;-86
2021/04/18 01:07:21;81622.00;0.27;141.84;0.00;0.00;0.62;;;;;11.10;1.00;;;;;;2252565;61;907;-88
2021/04/18 01:09:48;23685.00;0.08;41.65;0.00;0.00;0.62;;;;;10.70;1.00;;;;;;2252361;61;1016;-89
2021/04/18 01:12:15;114098.00;0.38;197.90;0.00;0.00;0.62;;;;;10.20;1.00;;;;;;2249136;61;1424;-89
2021/04/18 01:14:42;31722.00;0.11;55.56;0.00;0.00;0.62;;;;;10.00;1.00;;;;;;2255235;61;1063;-91
2021/04/18 01:17:09;5874.00;0.02;10.80;0.00;0.00;0.62;;;;;9.80;1.00;;;;;;2256413;61;920;-88
2021/04/18 01:19:36;9368.00;0.03;16.85;0.00;0.00;0.62;;;;;9.60;1.00;;;;;;2256361;61;2011;-90
2021/04/18 01:22:04;28647.00;0.10;50.24;0.00;0.00;0.62;;;;;9.40;1.00;;;;;;2256403;61;1392;-89
2021/04/18 01:24:31;130221.00;0.43;225.71;0.00;0.00;0.62;;;;;9.40;1.00;;;;;;2252393;61;1048;-90
2021/04/18 01:26:57;0.00;0.00;0.62;0.00;0.00;0.62;;;;;9.50;1.00;;;;;;2252940;61;1026;-89
2021/04/18 01:29:24;81742.00;0.27;142.05;0.00;0.00;0.62;;;;;9.50;1.00;;;;;;2256488;61;1062;-90
2021/04/18 01:31:50;93336.00;0.31;162.07;0.00;0.00;0.62;;;;;9.40;1.00;;;;;;2256281;61;1401;-89
2021/04/18 01:34:17;10422.00;0.03;18.68;0.00;0.00;0.62;;;;;9.20;1.00;;;;;;2252813;61;993;-89
2021/04/18 01:36:45;6484.00;0.02;11.86;0.00;0.00;0.62;;;;;8.80;1.00;;;;;;2256418;61;914;-88
2021/04/18 01:39:13;17917.00;0.06;31.66;0.00;0.00;0.62;;;;;8.40;1.00;;;;;;2256372;61;1936;-89
2021/04/18 01:41:41;0.00;0.00;0.62;0.00;0.00;0.62;;;;;8.60;1.00;;;;;;2253499;61;1452;-89
2021/04/18 01:44:12;26734.00;0.09;46.93;0.00;0.00;0.62;;;;;8.70;1.00;;;;;;2260415;61;1009;-89
2021/04/18 01:46:39;41248.00;0.14;72.05;0.00;0.00;0.62;;;;;9.00;1.00;;;;;;2260417;61;920;-88
2021/04/18 01:49:05;0.00;0.00;0.62;0.00;0.00;0.62;;;;;8.80;1.00;;;;;;2256322;61;991;-89
2021/04/18 01:51:32;0.00;0.00;0.62;0.00;0.00;0.62;;;;;8.80;1.00;;;;;;2256326;61;1355;-88
2021/04/18 01:53:58;0.00;0.00;0.62;0.00;0.00;0.62;;;;;8.70;1.00;;;;;;2256442;61;997;-88
2021/04/18 01:56:26;14803.00;0.05;26.27;0.00;0.00;0.62;;;;;8.90;1.00;;;;;;2248317;61;1024;-89
2021/04/18 01:58:52;146906.00;0.49;254.48;0.00;0.00;0.62;;;;;8.70;1.00;;;;;;2241822;61;2018;-89
2021/04/18 02:01:19;0.00;0.00;0.62;0.00;0.00;0.62;;;;;8.90;1.00;;;;;;2241763;61;1446;-90
2021/04/18 02:03:46;9650.00;0.03;17.34;0.00;0.00;0.62;;;;;8.70;1.00;;;;;;2241836;61;1010;-88
2021/04/18 02:06:12;51161.00;0.17;89.19;0.00;0.00;0.62;;;;;8.90;1.00;;;;;;2245185;61;953;-90
2021/04/18 02:08:39;136010.00;0.45;235.69;0.00;0.00;0.62;;;;;8.70;1.00;;;;;;2252262;61;947;-87
2021/04/18 02:11:05;207283.00;0.69;358.46;0.00;0.00;0.62;;;;;8.90;1.00;;;;;;2252183;61;1482;-89
2021/04/18 02:13:33;29892.00;0.10;52.40;0.00;0.00;0.62;;;;;9.00;1.00;;;;;;2246554;61;985;-87
2021/04/18 02:15:59;44205.00;0.15;77.16;0.00;0.00;0.62;;;;;8.50;1.00;;;;;;2260230;61;1016;-89
2021/04/18 02:18:26;165909.00;0.55;287.22;0.00;0.00;0.62;;;;;8.00;1.00;;;;;;2256919;61;2003;-89
2021/04/18 02:20:53;67729.00;0.23;117.84;0.00;0.00;0.62;;;;;8.10;1.00;;;;;;2260255;61;1365;-89
2021/04/18 02:23:19;0.00;0.00;0.62;0.00;0.00;0.62;;;;;8.40;1.00;;;;;;2256612;61;1052;-89
2021/04/18 02:25:46;22022.00;0.07;38.77;0.00;0.00;0.62;;;;;8.40;1.00;;;;;;2260297;61;1003;-89
2021/04/18 02:28:12;64526.00;0.22;112.30;0.00;0.00;0.62;;;;;8.10;1.00;;;;;;2260230;61;987;-90
2021/04/18 02:30:40;372.00;0.00;1.26;0.00;0.00;0.62;;;;;8.10;1.00;;;;;;2260154;61;1389;-87
2021/04/18 02:33:07;195568.00;0.65;338.29;17822.00;0.06;31.50;;;;;8.30;1.00;;;;;;2260236;61;953;-90
2021/04/18 02:35:33;118575.00;0.40;205.62;0.00;0.00;0.62;;;;;8.50;1.00;;;;;;2260140;61;975;-88
2021/04/18 02:38:00;189072.00;0.63;327.11;0.00;0.00;0.62;;;;;8.80;1.00;;;;;;2260188;61;2002;-90
2021/04/18 02:40:26;151381.00;0.50;262.19;0.00;0.00;0.62;;;;;9.10;1.00;;;;;;2253317;61;1468;-89
2021/04/18 02:42:53;39470.00;0.13;68.97;0.00;0.00;0.62;;;;;9.40;1.00;;;;;;2250279;61;1117;-91
2021/04/18 02:45:19;30766.00;0.10;53.91;0.00;0.00;0.62;;;;;9.70;1.00;;;;;;2250264;61;1060;-90
2021/04/18 02:47:47;71228.00;0.24;123.88;0.00;0.00;0.62;;;;;9.50;1.00;;;;;;2248031;61;1017;-89
2021/04/18 02:50:14;0.00;0.00;0.62;0.00;0.00;0.62;;;;;9.30;1.00;;;;;;2248169;61;1418;-90
2021/04/18 02:52:40;55794.00;0.19;97.21;0.00;0.00;0.62;;;;;9.30;1.00;;;;;;2249015;61;977;-87
2021/04/18 02:55:08;100775.00;0.34;174.91;17949.00;0.06;31.72;;;;;9.40;1.00;;;;;;2252875;61;996;-89
2021/04/18 02:57:34;67470.00;0.22;117.39;0.00;0.00;0.62;;;;;9.20;1.00;;;;;;2252102;61;1923;-90
2021/04/18 03:00:01;113353.00;0.38;196.62;0.00;0.00;0.62;;;;;9.20;1.00;;;;;;2242245;61;1445;-87
2021/04/18 03:02:27;46803.00;0.16;81.66;0.00;0.00;0.62;;;;;9.20;1.00;;;;;;2240211;62;958;-88
2021/04/18 03:04:59;58668.00;0.20;102.17;0.00;0.00;0.62;;;;;9.10;1.00;;;;;;2234691;62;1007;-89
2021/04/18 03:07:26;239288.00;0.80;413.53;60767.00;0.20;105.80;;;;;9.20;1.00;;;;;;2248183;61;921;-90
2021/04/18 03:09:52;24687.00;0.08;43.39;0.00;0.00;0.62;;;;;9.30;1.00;;;;;;2244781;61;953;-89
2021/04/18 03:12:20;87907.00;0.29;152.69;0.00;0.00;0.62;;;;;9.10;1.00;;;;;;2244042;61;1315;-89
2021/04/18 03:14:46;136758.00;0.46;236.98;0.00;0.00;0.62;;;;;9.00;1.00;;;;;;2245297;61;1014;-90
2021/04/18 03:17:14;40237.00;0.13;70.30;0.00;0.00;0.62;;;;;9.00;1.00;;;;;;2245465;61;1048;-89
2021/04/18 03:19:40;53842.00;0.18;93.83;0.00;0.00;0.62;;;;;8.90;1.00;;;;;;2253196;61;2021;-88
2021/04/18 03:22:09;347021.00;1.16;598.74;7657.00;0.03;13.89;;;;;8.70;1.00;;;;;;2255898;61;1391;-90
2021/04/18 03:24:36;69729.00;0.23;121.29;0.00;0.00;0.62;;;;;8.80;1.00;;;;;;2256039;61;1054;-90
2021/04/18 03:27:03;130714.00;0.44;226.56;0.00;0.00;0.62;;;;;8.90;1.00;;;;;;2249301;61;983;-91
2021/04/18 03:29:30;31486.00;0.10;55.16;0.00;0.00;0.62;;;;;9.00;1.00;;;;;;2253178;61;1002;-90
2021/04/18 03:31:56;270993.00;0.90;468.05;75888.00;0.25;131.93;;;;;8.90;1.00;;;;;;2256716;61;1327;-90
2021/04/18 03:34:23;175703.00;0.59;304.09;0.00;0.00;0.62;;;;;9.00;1.00;;;;;;2256657;61;979;-89
2021/04/18 03:36:49;5428.00;0.02;10.03;0.00;0.00;0.62;;;;;8.90;1.00;;;;;;2256661;61;1042;-90
2021/04/18 03:39:16;15307.00;0.05;27.14;0.00;0.00;0.62;;;;;9.00;1.00;;;;;;2260619;61;1911;-89
2021/04/18 03:41:43;183469.00;0.61;317.46;0.00;0.00;0.62;;;;;9.00;1.00;;;;;;2264555;61;1488;-88
2021/04/18 03:44:09;0.00;0.00;0.62;0.00;0.00;0.62;;;;;9.00;1.00;;;;;;2263948;61;929;-88
2021/04/18 03:46:36;40935.00;0.14;71.51;0.00;0.00;0.62;;;;;9.10;1.00;;;;;;2264034;61;1043;-90
2021/04/18 03:49:03;269866.00;0.90;466.11;0.00;0.00;0.62;;;;;9.00;1.00;;;;;;2263983;61;978;-90
2021/04/18 03:51:30;0.00;0.00;0.62;0.00;0.00;0.62;;;;;8.80;1.00;;;;;;2263942;61;1270;-89
2021/04/18 03:53:56;109218.00;0.36;189.48;0.00;0.00;0.62;;;;;8.70;1.00;;;;;;2264079;61;1031;-90
2021/04/18 03:56:24;190398.00;0.63;329.39;0.00;0.00;0.62;;;;;8.40;1.00;;;;;;2264015;61;962;-91
2021/04/18 03:58:50;124507.00;0.42;215.86;0.00;0.00;0.62;;;;;8.50;1.00;;;;;;2263812;61;1981;-92
2021/04/18 04:01:16;352728.00;1.18;608.55;66598.00;0.22;115.88;;;;;8.50;1.00;;;;;;2264012;61;1482;-90
2021/04/18 04:03:43;180752.00;0.60;312.78;30171.00;0.10;52.88;;;;;8.40;1.00;;;;;;2264033;61;1002;-90
2021/04/18 04:06:10;47731.00;0.16;83.26;0.00;0.00;0.62;;;;;8.50;1.00;;;;;;2257371;61;1040;-90
2021/04/18 04:08:36;57229.00;0.19;99.69;0.00;0.00;0.62;;;;;8.50;1.00;;;;;;2264429;61;1027;-89
2021/04/18 04:11:02;19172.00;0.06;33.84;0.00;0.00;0.62;;;;;8.40;1.00;;;;;;2264400;61;1253;-89
2021/04/18 04:13:30;0.00;0.00;0.62;0.00;0.00;0.62;;;;;8.30;1.00;;;;;;2259873;61;961;-89
2021/04/18 04:15:56;17484.00;0.06;30.91;0.00;0.00;0.62;;;;;8.10;1.00;;;;;;2255907;61;1031;-88
2021/04/18 04:18:23;59385.00;0.20;103.41;0.00;0.00;0.62;;;;;8.10;1.00;;;;;;2247864;61;2014;-90
2021/04/18 04:20:49;251388.00;0.84;434.34;17112.00;0.06;30.27;;;;;8.20;1.00;;;;;;2243937;61;1397;-88
2021/04/18 04:23:15;18245.00;0.06;32.23;0.00;0.00;0.62;;;;;8.20;1.00;;;;;;2243982;61;970;-90
2021/04/18 04:25:42;13833.00;0.05;24.59;0.00;0.00;0.62;;;;;8.30;1.00;;;;;;2236036;62;983;-89
2021/04/18 04:28:08;288248.00;0.96;497.72;27947.00;0.09;49.03;;;;;8.40;1.00;;;;;;2236104;62;1207;-90
2021/04/18 04:30:36;80307.00;0.27;139.57;0.00;0.00;0.62;;;;;8.60;1.00;;;;;;2236391;62;1437;-91
2021/04/18 04:33:04;124234.00;0.41;215.39;8974.00;0.03;16.17;;;;;8.90;1.00;;;;;;2240438;62;1106;-90
2021/04/18 04:35:30;75379.00;0.25;131.05;0.00;0.00;0.62;;;;;9.00;1.00;;;;;;2243908;61;1104;-90
2021/04/18 04:37:57;185984.00;0.62;321.79;0.00;0.00;0.62;;;;;9.30;1.00;;;;;;2241119;61;1995;-91
2021/04/18 04:40:24;6968.00;0.02;12.70;0.00;0.00;0.62;;;;;9.00;1.00;;;;;;2248839;61;1467;-89
2021/04/18 04:42:51;8901.00;0.03;16.05;0.00;0.00;0.62;;;;;8.60;1.00;;;;;;2247532;61;1107;-88
2021/04/18 04:45:18;121183.00;0.40;210.12;0.00;0.00;0.62;;;;;8.30;1.00;;;;;;2264598;61;1029;-90
2021/04/18 04:50:15;132961.00;0.44;230.44;0.00;0.00;0.62;;;;;8.10;1.00;;;;;;2266779;61;1443;-92
2021/04/18 04:52:43;106695.00;0.36;185.13;34617.00;0.12;60.57;;;;;8.20;1.00;;;;;;2260555;61;951;-90
2021/04/18 04:55:10;0.00;0.00;0.62;0.00;0.00;0.62;;;;;8.30;1.00;;;;;;2256474;61;1001;-89
2021/04/18 04:57:37;178461.00;0.59;308.84;33242.00;0.11;58.19;;;;;8.30;1.00;;;;;;2253227;61;1916;-89
2021/04/18 05:00:04;156773.00;0.52;271.48;0.00;0.00;0.62;;;;;7.90;1.00;;;;;;2256351;61;1361;-88
2021/04/18 05:07:27;226715.00;0.76;391.90;0.00;0.00;0.62;;;;;8.00;1.00;;;;;;2267105;61;1320;-89
2021/04/18 05:09:53;7189.00;0.02;13.08;0.00;0.00;0.62;;;;;7.90;1.00;;;;;;2265522;61;470;-87
2021/04/18 05:19:47;861747.00;2.87;1489.03;0.00;0.00;0.62;;;;;8.40;1.00;;;;;;2267321;61;1937;-91
2021/04/18 05:22:14;258075.00;0.86;445.84;0.00;0.00;0.62;;;;;8.70;1.00;;;;;;2265005;61;1412;-90
2021/04/18 05:24:41;0.00;0.00;0.62;0.00;0.00;0.62;;;;;9.00;1.00;;;;;;2265473;61;469;-89
2021/04/18 05:27:07;56738.00;0.19;98.84;0.00;0.00;0.62;;;;;9.40;1.00;;;;;;2261695;61;916;-86
2021/04/18 05:54:21;131656.00;0.44;228.18;0.00;0.00;0.62;;;;;10.10;1.00;;;;;;2266364;61;1407;-90
2021/04/18 05:59:16;163873.00;0.55;283.71;0.00;0.00;0.62;;;;;9.40;1.00;;;;;;2266135;61;1962;-89
2021/04/18 06:01:43;74923.00;0.25;130.27;0.00;0.00;0.62;;;;;9.80;1.00;;;;;;2264096;61;1436;-90
2021/04/18 06:04:11;53917.00;0.18;93.96;0.00;0.00;0.62;;;;;10.00;1.00;;;;;;2263538;61;1000;-88
2021/04/18 06:06:37;107584.00;0.36;186.66;0.00;0.00;0.62;;;;;10.20;1.00;;;;;;2264236;61;1028;-88
2021/04/18 06:09:04;14626.00;0.05;25.96;0.00;0.00;0.62;;;;;10.00;1.00;;;;;;2260060;61;1018;-89
2021/04/18 06:11:31;151860.00;0.51;263.01;0.00;0.00;0.62;;;;;9.90;1.00;;;;;;2253493;61;1362;-89
2021/04/18 06:13:58;13860.00;0.05;24.64;0.00;0.00;0.62;;;;;9.70;1.00;;;;;;2253615;61;946;-91
2021/04/18 06:16:24;98684.00;0.33;171.30;0.00;0.00;0.62;;;;;9.80;1.00;;;;;;2253510;61;1046;-88
2021/04/18 06:21:21;375996.00;1.25;648.54;0.00;0.00;0.62;;;;;10.10;1.00;;;;;;2266394;61;1380;-88
2021/04/18 06:23:47;284271.00;0.95;490.88;0.00;0.00;0.62;;;;;9.80;1.00;;;;;;2264563;61;949;-89
2021/04/18 06:26:14;0.00;0.00;0.62;0.00;0.00;0.62;;;;;9.70;1.00;;;;;;2260045;61;974;-89
2021/04/18 06:28:41;84771.00;0.28;147.28;0.00;0.00;0.62;;;;;10.00;1.00;;;;;;2260249;61;1053;-88
2021/04/18 06:31:07;4251.00;0.01;7.99;0.00;0.00;0.62;;;;;10.70;1.00;;;;;;2250313;61;1351;-89
2021/04/18 06:33:34;0.00;0.00;0.62;0.00;0.00;0.62;;;;;11.00;1.00;;;;;;2250318;61;1046;-89
2021/04/18 06:36:00;10450.00;0.03;18.73;0.00;0.00;0.62;;;;;11.30;1.00;;;;;;2250359;61;1021;-87
2021/04/18 06:38:27;96226.00;0.32;167.06;29861.00;0.10;52.34;;;;;11.40;1.00;;;;;;2252060;61;1991;-89
2021/04/18 06:40:53;79299.00;0.26;137.83;0.00;0.00;0.62;;;;;11.00;1.00;;;;;;2252042;61;1385;-88
2021/04/18 06:43:22;4715.00;0.02;8.79;0.00;0.00;0.62;;;;;11.10;1.00;;;;;;2248717;61;976;-87
2021/04/18 06:45:51;140318.00;0.47;243.12;0.00;0.00;0.62;;;;;11.20;1.00;;;;;;2244351;62;1034;-88
2021/04/18 06:48:19;44680.00;0.15;77.98;0.00;0.00;0.62;;;;;11.40;1.00;;;;;;2248147;61;977;-88
2021/04/18 06:50:45;28136.00;0.09;49.36;0.00;0.00;0.62;;;;;11.30;1.00;;;;;;2241592;61;1259;-86
2021/04/18 06:53:12;32554.00;0.11;57.00;0.00;0.00;0.62;;;;;11.30;1.00;;;;;;2241740;61;1051;-88
2021/04/18 06:55:40;99237.00;0.33;172.25;3515.00;0.01;6.71;;;;;11.10;1.00;;;;;;2242228;61;979;-87
2021/04/18 06:58:06;196301.00;0.65;339.56;0.00;0.00;0.62;;;;;10.80;1.00;;;;;;2252121;61;1996;-88
2021/04/18 07:00:33;312170.00;1.04;538.84;34661.00;0.12;60.65;;;;;11.00;1.00;;;;;;2248758;61;1348;-88
2021/04/18 07:03:11;95781.00;0.32;166.29;0.00;0.00;0.62;;;;;10.50;1.00;;;;;;2249380;61;1075;-88
2021/04/18 07:05:43;107795.00;0.36;187.03;40232.00;0.13;70.29;;;;;10.40;1.00;;;;;;2257719;61;992;-87
2021/04/18 07:08:20;45565.00;0.15;79.52;0.00;0.00;0.62;;;;;10.50;1.00;;;;;;2264627;61;946;-87
2021/04/18 07:10:48;309223.00;1.03;533.77;86552.00;0.29;150.35;;;;;10.50;1.00;;;;;;2264080;61;1447;-86
2021/04/18 07:15:49;333680.00;1.11;575.81;83452.00;0.28;145.00;;;;;10.50;1.00;;;;;;2266100;61;1400;-87
2021/04/18 07:18:37;226565.00;0.76;391.64;0.00;0.00;0.62;;;;;10.60;1.00;;;;;;2264723;61;1989;-87
2021/04/18 07:23:34;340882.00;1.14;588.19;81929.00;0.27;142.37;;;;;10.90;1.00;;;;;;2270175;61;1431;-88
2021/04/18 07:26:17;259472.00;0.86;448.24;94261.00;0.31;163.66;;;;;11.40;1.00;;;;;;2268604;61;981;-89
2021/04/18 07:28:43;431611.00;1.44;744.16;83130.00;0.28;144.44;;;;;11.50;1.00;;;;;;2261525;61;1029;-89
2021/04/18 07:31:10;221941.00;0.74;383.68;81118.00;0.27;140.97;;;;;11.20;1.00;;;;;;2268521;61;1435;-87
2021/04/18 07:34:02;340687.00;1.14;587.85;84946.00;0.28;147.58;;;;;11.50;1.00;;;;;;2264818;61;1061;-88
2021/04/18 07:39:00;857072.00;2.86;1480.85;0.00;0.00;0.62;;;;;11.40;1.00;;;;;;2266795;61;1937;-88
2021/04/18 07:41:27;267087.00;0.89;461.34;0.00;0.00;0.62;;;;;12.10;1.00;;;;;;2260063;61;1408;-87
2021/04/18 07:43:54;207683.00;0.69;359.15;0.00;0.00;0.62;;;;;12.40;1.00;;;;;;2256701;61;947;-86
2021/04/18 07:46:21;183605.00;0.61;317.70;0.00;0.00;0.62;;;;;12.30;1.00;;;;;;2253479;61;1009;-87
2021/04/18 07:48:49;208397.00;0.69;360.38;0.00;0.00;0.62;;;;;12.10;1.00;;;;;;2260163;61;984;-89
2021/04/18 07:51:16;424324.00;1.41;731.63;81919.00;0.27;142.35;;;;;12.30;1.00;;;;;;2259998;61;1350;-87
2021/04/18 07:53:46;448757.00;1.50;773.64;90505.00;0.30;157.18;;;;;12.40;1.00;;;;;;2260192;61;1023;-88
2021/04/18 07:56:15;374588.00;1.25;646.12;88413.00;0.29;153.57;;;;;12.20;1.00;;;;;;2260177;61;1036;-87
2021/04/18 07:58:43;547750.00;1.83;944.08;85111.00;0.28;147.86;;;;;12.30;1.00;;;;;;2260801;61;1977;-88
2021/04/18 08:01:17;581547.00;1.94;1002.37;111816.00;0.37;193.96;;;;;12.60;1.00;;;;;;2264490;61;1420;-86
2021/04/18 08:03:45;424266.00;1.41;731.53;0.00;0.00;0.62;;;;;12.70;1.00;;;;;;2259998;61;927;-88
2021/04/18 08:06:12;118628.00;0.40;205.72;0.00;0.00;0.62;;;;;12.60;1.00;;;;;;2250041;61;1038;-88
2021/04/18 08:08:47;337593.00;1.13;582.54;0.00;0.00;0.62;;;;;12.30;1.00;;;;;;2256612;61;1004;-88
2021/04/18 08:11:18;458144.00;1.53;789.79;54088.00;0.18;94.26;;;;;12.40;1.00;;;;;;2247940;61;1314;-89
2021/04/18 08:13:47;125706.00;0.42;217.92;0.00;0.00;0.62;;;;;12.80;1.00;;;;;;2241671;61;1046;-88
2021/04/18 08:16:15;60027.00;0.20;104.52;0.00;0.00;0.62;;;;;13.10;1.00;;;;;;2248698;61;964;-86
2021/04/18 08:18:43;121731.00;0.41;211.07;0.00;0.00;0.62;;;;;13.10;1.00;;;;;;2244650;61;2011;-89
2021/04/18 08:21:28;326528.00;1.09;563.52;0.00;0.00;0.62;;;;;12.80;1.00;;;;;;2238874;61;1303;-88
2021/04/18 08:23:55;75247.00;0.25;130.83;0.00;0.00;0.62;;;;;12.70;1.00;;;;;;2244783;61;1011;-89
2021/04/18 08:26:24;57406.00;0.19;99.99;0.00;0.00;0.62;;;;;12.90;1.00;;;;;;2238254;61;1023;-87
2021/04/18 08:29:10;180692.00;0.60;312.68;0.00;0.00;0.62;;;;;13.20;1.00;;;;;;2241257;61;977;-88
2021/04/18 08:32:06;0.00;0.00;0.62;0.00;0.00;0.62;;;;;12.90;1.00;;;;;;2252555;61;1330;-87
2021/04/18 08:34:34;21492.00;0.07;37.85;0.00;0.00;0.62;;;;;13.00;1.00;;;;;;2243646;61;946;-87
2021/04/18 08:37:03;0.00;0.00;0.62;0.00;0.00;0.62;;;;;12.30;1.00;;;;;;2242454;61;1049;-87
2021/04/18 08:39:33;205994.00;0.69;356.24;69098.00;0.23;120.20;;;;;11.80;1.00;;;;;;2251189;61;1926;-86
2021/04/18 08:42:03;50651.00;0.17;88.31;0.00;0.00;0.62;;;;;11.80;1.00;;;;;;2252602;61;1455;-88
2021/04/18 08:44:42;0.00;0.00;0.62;0.00;0.00;0.62;;;;;11.80;1.00;;;;;;2249296;61;1059;-87
2021/04/18 08:47:11;0.00;0.00;0.62;0.00;0.00;0.62;;;;;12.00;1.00;;;;;;2240761;61;945;-87
2021/04/18 08:49:42;0.00;0.00;0.62;0.00;0.00;0.62;;;;;11.90;1.00;;;;;;2238723;62;930;-88
2021/04/18 08:52:11;60229.00;0.20;104.87;0.00;0.00;0.62;;;;;12.10;1.00;;;;;;2240779;62;1450;-88
2021/04/18 08:54:39;36268.00;0.12;63.43;0.00;0.00;0.62;;;;;12.20;1.00;;;;;;2240683;62;1025;-87
2021/04/18 08:57:10;10480.00;0.03;18.78;0.00;0.00;0.62;;;;;12.30;1.00;;;;;;2240674;62;974;-87
2021/04/18 08:59:37;22295.00;0.07;39.24;0.00;0.00;0.62;;;;;12.20;1.00;;;;;;2246853;61;1932;-87
2021/04/18 09:02:06;54747.00;0.18;95.39;0.00;0.00;0.62;;;;;11.70;1.00;;;;;;2248753;61;1815;-87
2021/04/18 09:04:34;20068.00;0.07;35.39;0.00;0.00;0.62;;;;;11.40;1.00;;;;;;2246209;61;1020;-86
2021/04/18 09:07:03;73884.00;0.25;128.47;0.00;0.00;0.62;;;;;11.70;1.00;;;;;;2252505;61;1054;-87
2021/04/18 09:09:30;176640.00;0.59;305.70;0.00;0.00;0.62;;;;;12.10;1.00;;;;;;2252478;61;1063;-85
2021/04/18 09:11:57;114411.00;0.38;198.44;0.00;0.00;0.62;;;;;12.40;1.00;;;;;;2252399;61;1338;-87
2021/04/18 09:14:30;1564.00;0.01;3.33;0.00;0.00;0.62;;;;;12.40;1.00;;;;;;2252400;61;1045;-87
2021/04/18 09:17:11;54613.00;0.18;95.16;0.00;0.00;0.62;;;;;12.20;1.00;;;;;;2249920;61;1001;-86
2021/04/18 09:19:40;43847.00;0.15;76.54;0.00;0.00;0.62;;;;;11.90;1.00;;;;;;2252411;61;1923;-87
2021/04/18 09:22:09;126188.00;0.42;218.76;0.00;0.00;0.62;;;;;11.70;1.00;;;;;;2252432;61;1264;-87
2021/04/18 09:24:40;81561.00;0.27;141.73;0.00;0.00;0.62;;;;;11.90;1.00;;;;;;2252363;61;1130;-86
2021/04/18 09:27:13;27400.00;0.09;48.08;0.00;0.00;0.62;;;;;12.20;1.00;;;;;;2241664;61;930;-86
2021/04/18 09:29:44;66032.00;0.22;114.90;0.00;0.00;0.62;;;;;11.90;1.00;;;;;;2245995;61;1056;-86
2021/04/18 09:32:12;200265.00;0.67;346.38;0.00;0.00;0.62;;;;;11.50;1.00;;;;;;2248481;61;1525;-85
2021/04/18 09:34:41;117759.00;0.39;204.22;0.00;0.00;0.62;;;;;11.80;1.00;;;;;;2244465;61;973;-88
2021/04/18 09:37:13;112692.00;0.38;195.47;20583.00;0.07;36.28;;;;;12.30;1.00;;;;;;2246731;61;966;-86
2021/04/18 09:39:41;3745.00;0.01;7.11;0.00;0.00;0.62;;;;;12.60;1.00;;;;;;2248239;61;1915;-87
2021/04/18 09:42:09;114428.00;0.38;198.47;0.00;0.00;0.62;;;;;12.10;1.00;;;;;;2244394;61;1342;-86
2021/04/18 09:44:41;109789.00;0.37;190.47;0.00;0.00;0.62;;;;;11.90;1.00;;;;;;2241198;61;970;-85
2021/04/18 09:47:19;83370.00;0.28;144.86;16575.00;0.06;29.34;;;;;11.90;1.00;;;;;;2256339;61;970;-87
2021/04/18 09:49:48;251416.00;0.84;434.39;0.00;0.00;0.62;;;;;12.20;1.00;;;;;;2246481;61;1044;-87
2021/04/18 09:52:27;97486.00;0.32;169.23;0.00;0.00;0.62;;;;;11.80;1.00;;;;;;2244336;61;1345;-86
2021/04/18 09:54:54;214766.00;0.72;371.34;77926.00;0.26;135.45;;;;;11.40;1.00;;;;;;2244319;61;1081;-86
2021/04/18 09:57:24;131780.00;0.44;228.40;0.00;0.00;0.62;;;;;11.80;1.00;;;;;;2244339;61;1017;-89
2021/04/18 10:00:10;177355.00;0.59;306.93;0.00;0.00;0.62;;;;;12.70;1.00;;;;;;2244181;61;2001;-85
2021/04/18 10:02:38;84234.00;0.28;146.35;0.00;0.00;0.62;;;;;12.40;1.00;;;;;;2244490;61;1061;-86
2021/04/18 10:05:15;517558.00;1.73;892.06;153589.00;0.51;265.99;;;;;12.40;1.00;;;;;;2246859;61;1019;-86
2021/04/18 10:07:43;52008.00;0.17;90.66;0.00;0.00;0.62;;;;;12.30;1.00;;;;;;2249022;61;978;-87
2021/04/18 10:10:12;181319.00;0.60;313.76;62140.00;0.21;108.18;;;;;12.50;1.00;;;;;;2249303;61;1359;-86
2021/04/18 10:12:52;107945.00;0.36;187.28;0.00;0.00;0.62;;;;;12.80;1.00;;;;;;2250385;61;1021;-86
2021/04/18 10:15:20;154553.00;0.52;267.65;0.00;0.00;0.62;;;;;12.70;1.00;;;;;;2256905;61;1069;-85
2021/04/18 10:17:48;314944.00;1.05;543.61;8338.00;0.03;15.07;;;;;12.00;1.00;;;;;;2255518;61;1080;-85
2021/04/18 10:20:25;0.00;0.00;0.62;0.00;0.00;0.62;;;;;11.80;1.00;;;;;;2260888;61;1932;-86
2021/04/18 10:23:09;144765.00;0.48;250.78;57600.00;0.19;100.33;;;;;11.80;1.00;;;;;;2264649;61;971;-87
2021/04/18 10:25:37;76030.00;0.25;132.18;0.00;0.00;0.62;;;;;11.90;1.00;;;;;;2248065;61;976;-84
2021/04/18 10:28:04;124421.00;0.41;215.71;0.00;0.00;0.62;;;;;12.20;1.00;;;;;;2240259;61;1046;-85
2021/04/18 10:30:31;99808.00;0.33;173.24;14687.00;0.05;26.07;;;;;12.30;1.00;;;;;;2236998;61;1318;-85
2021/04/18 10:32:59;242818.00;0.81;419.60;44848.00;0.15;78.28;;;;;12.50;1.00;;;;;;2240349;61;969;-87
2021/04/18 10:35:26;25152.00;0.08;44.19;0.00;0.00;0.62;;;;;13.10;1.00;;;;;;2240352;61;1084;-88
2021/04/18 10:37:52;380807.00;1.27;656.81;0.00;0.00;0.62;;;;;13.60;1.00;;;;;;2240214;61;1069;-85
2021/04/18 10:40:22;204921.00;0.68;354.39;0.00;0.00;0.62;;;;;14.10;1.00;;;;;;2240149;61;1937;-84
2021/04/18 10:42:49;64330.00;0.21;111.96;0.00;0.00;0.62;;;;;13.40;1.00;;;;;;2240888;61;1113;-85
2021/04/18 10:45:16;9138.00;0.03;16.46;0.00;0.00;0.62;;;;;13.30;1.00;;;;;;2246068;61;1865;-86
2021/04/18 10:47:43;21149.00;0.07;37.26;0.00;0.00;0.62;;;;;13.60;1.00;;;;;;2256162;61;1133;-84
2021/04/18 10:50:12;137564.00;0.46;238.37;34276.00;0.11;59.98;;;;;13.00;1.00;;;;;;2256182;61;1417;-86
2021/04/18 10:52:39;585969.00;1.95;1010.00;161929.00;0.54;280.36;;;;;13.00;1.00;;;;;;2249677;61;1634;-86
2021/04/18 10:55:08;257437.00;0.86;444.74;21819.00;0.07;38.42;;;;;13.30;1.00;;;;;;2252881;61;1075;-87
2021/04/18 10:57:34;238717.00;0.80;412.54;0.00;0.00;0.62;;;;;13.60;1.00;;;;;;2248210;61;960;-88
2021/04/18 11:00:01;237863.00;0.79;411.08;21627.00;0.07;38.09;;;;;13.80;1.00;;;;;;2248001;61;1998;-86
2021/04/18 11:02:27;35381.00;0.12;61.90;0.00;0.00;0.62;;;;;14.10;1.00;;;;;;2251849;61;1259;-88
2021/04/18 11:04:54;468312.00;1.56;807.29;0.00;0.00;0.62;;;;;14.10;1.00;;;;;;2256243;61;1143;-86